createdAt,value
2017-12-15T00:00:02.452Z,28.40
2017-12-15T00:02:28.677Z,39.20
2017-12-15T00:04:54.867Z,33.50
2017-12-15T00:07:21.109Z,36.97
2017-12-15T00:09:47.330Z,37.93
2017-12-15T00:12:13.537Z,34.10
2017-12-15T00:14:40.563Z,42.70
2017-12-15T00:17:06.837Z,36.83
2017-12-15T00:19:33.033Z,32.00
2017-12-15T00:21:59.246Z,52.87
2017-12-15T00:24:25.481Z,62.40
2017-12-15T00:26:51.691Z,42.50
2017-12-15T00:29:17.891Z,48.07
2017-12-15T00:31:44.251Z,36.10
2017-12-15T00:34:10.438Z,27.53
2017-12-15T00:36:36.661Z,36.00
2017-12-15T00:39:02.931Z,44.37
2017-12-15T00:41:29.116Z,35.13
2017-12-15T00:43:55.350Z,37.70
2017-12-15T00:46:21.577Z,34.83
2017-12-15T00:48:47.809Z,31.57
2017-12-15T00:51:14.017Z,31.30
2017-12-15T00:53:40.254Z,34.27
2017-12-15T00:56:06.493Z,34.60
2017-12-15T00:58:32.723Z,28.47
2017-12-15T01:00:58.965Z,30.08
2017-12-15T01:03:25.175Z,30.73
2017-12-15T01:05:51.434Z,29.52
2017-12-15T01:08:17.710Z,28.50
2017-12-15T01:10:43.909Z,31.90
2017-12-15T01:13:10.100Z,32.28
2017-12-15T01:15:37.056Z,27.35
2017-12-15T01:18:03.997Z,29.07
2017-12-15T01:20:30.182Z,31.33
2017-12-15T01:22:56.415Z,27.33
2017-12-15T01:25:22.651Z,31.93
2017-12-15T01:27:48.843Z,21.23
2017-12-15T01:30:15.813Z,32.33
2017-12-15T01:32:42.271Z,24.43
2017-12-15T01:35:08.531Z,28.00
2017-12-15T01:37:34.740Z,27.20
2017-12-15T01:40:00.957Z,24.40
2017-12-15T01:42:27.184Z,31.57
2017-12-15T01:44:53.461Z,27.50
2017-12-15T01:47:19.666Z,24.70
2017-12-15T01:49:45.868Z,25.00
2017-12-15T01:52:12.100Z,27.60
2017-12-15T01:54:38.329Z,25.23
2017-12-15T01:57:05.298Z,33.50
2017-12-15T01:59:32.294Z,29.50
2017-12-15T02:01:58.509Z,32.20
2017-12-15T02:04:25.441Z,21.10
2017-12-15T02:06:52.401Z,24.03
2017-12-15T02:09:18.657Z,23.13
2017-12-15T02:11:44.870Z,29.67
2017-12-15T02:14:11.114Z,21.13
2017-12-15T02:16:37.346Z,26.70
2017-12-15T02:19:03.567Z,23.00
2017-12-15T02:21:29.800Z,25.77
2017-12-15T02:23:56.050Z,25.80
2017-12-15T02:26:22.276Z,29.73
2017-12-15T02:28:48.518Z,22.87
2017-12-15T02:31:14.737Z,22.73
2017-12-15T02:33:41.177Z,23.47
2017-12-15T02:36:08.469Z,21.40
2017-12-15T02:38:34.746Z,24.60
2017-12-15T02:41:01.718Z,23.80
2017-12-15T02:43:28.858Z,26.30
2017-12-15T02:45:55.056Z,25.80
2017-12-15T02:48:21.274Z,30.53
2017-12-15T02:50:47.518Z,31.43
2017-12-15T02:53:13.729Z,29.10
2017-12-15T02:55:39.935Z,27.73
2017-12-15T02:58:06.981Z,24.93
2017-12-15T03:00:33.181Z,23.33
2017-12-15T03:02:59.375Z,27.63
2017-12-15T03:05:26.322Z,24.10
2017-12-15T03:07:53.297Z,28.20
2017-12-15T03:10:19.481Z,26.97
2017-12-15T03:12:45.721Z,23.83
2017-12-15T03:15:12.708Z,27.63
2017-12-15T03:17:39.648Z,27.33
2017-12-15T03:20:05.875Z,32.17
2017-12-15T03:22:32.828Z,35.57
2017-12-15T03:24:59.765Z,28.43
2017-12-15T03:27:26.717Z,27.70
2017-12-15T03:29:52.917Z,24.13
2017-12-15T03:32:19.105Z,25.60
2017-12-15T03:34:45.897Z,37.50
2017-12-15T03:37:12.129Z,25.63
2017-12-15T03:39:38.352Z,24.43
2017-12-15T03:42:04.598Z,34.50
2017-12-15T03:44:30.821Z,27.13
2017-12-15T03:46:57.036Z,32.53
2017-12-15T03:49:24.089Z,31.43
2017-12-15T03:51:50.284Z,31.97
2017-12-15T03:54:16.491Z,36.17
2017-12-15T03:56:42.837Z,30.90
2017-12-15T03:59:09.056Z,23.93
2017-12-15T04:01:35.303Z,28.57
2017-12-15T04:04:02.257Z,28.03
2017-12-15T04:06:28.468Z,33.23
2017-12-15T04:08:54.688Z,20.67
2017-12-15T04:11:20.929Z,28.50
2017-12-15T04:13:47.139Z,26.57
2017-12-15T04:16:14.109Z,25.33
2017-12-15T04:18:40.336Z,26.83
2017-12-15T04:21:06.576Z,27.53
2017-12-15T04:23:32.786Z,32.13
2017-12-15T04:25:59.044Z,27.80
2017-12-15T04:28:25.264Z,30.10
2017-12-15T04:30:51.468Z,31.33
2017-12-15T04:33:17.686Z,23.70
2017-12-15T04:35:46.619Z,29.63
2017-12-15T04:38:12.851Z,30.67
2017-12-15T04:40:39.816Z,24.70
2017-12-15T04:43:06.033Z,24.90
2017-12-15T04:45:32.968Z,33.10
2017-12-15T04:47:59.199Z,35.57
2017-12-15T04:50:25.408Z,30.70
2017-12-15T04:52:51.716Z,30.27
2017-12-15T04:55:17.952Z,36.27
2017-12-15T04:57:44.160Z,29.13
2017-12-15T05:00:11.126Z,33.40
2017-12-15T05:02:37.360Z,34.27
2017-12-15T05:05:04.285Z,27.30
2017-12-15T05:07:31.328Z,34.63
2017-12-15T05:09:57.542Z,39.50
2017-12-15T05:12:23.768Z,34.40
2017-12-15T05:14:49.993Z,34.37
2017-12-15T05:17:16.239Z,34.43
2017-12-15T05:19:42.470Z,38.23
2017-12-15T05:22:08.714Z,37.93
2017-12-15T05:24:34.942Z,39.97
2017-12-15T05:27:01.170Z,39.43
2017-12-15T05:29:27.403Z,34.67
2017-12-15T05:31:53.628Z,35.23
2017-12-15T05:34:19.836Z,34.50
2017-12-15T05:36:46.395Z,31.63
2017-12-15T05:39:12.623Z,37.70
2017-12-15T05:41:38.852Z,36.53
2017-12-15T05:44:05.056Z,41.10
2017-12-15T05:46:32.018Z,35.07
2017-12-15T05:48:59.017Z,32.90
2017-12-15T05:51:25.216Z,37.20
2017-12-15T05:53:51.456Z,41.83
2017-12-15T05:56:17.671Z,39.47
2017-12-15T05:58:44.621Z,35.43
2017-12-15T06:01:11.729Z,34.00
2017-12-15T06:03:37.993Z,40.73
2017-12-15T06:06:04.977Z,33.87
2017-12-15T06:08:32.004Z,41.77
2017-12-15T06:10:58.221Z,36.07
2017-12-15T06:13:25.189Z,30.20
2017-12-15T06:15:51.408Z,31.73
2017-12-15T06:18:17.616Z,41.27
2017-12-15T06:20:43.855Z,38.93
2017-12-15T06:23:10.944Z,36.23
2017-12-15T06:25:37.157Z,39.87
2017-12-15T06:28:03.448Z,43.20
2017-12-15T06:30:29.665Z,39.23
2017-12-15T06:32:56.648Z,44.83
2017-12-15T06:35:22.863Z,45.83
2017-12-15T06:37:49.429Z,42.07
2017-12-15T06:40:15.669Z,50.07
2017-12-15T06:42:41.963Z,44.93
2017-12-15T06:45:08.240Z,46.20
2017-12-15T06:47:34.496Z,46.20
2017-12-15T06:50:00.793Z,39.27
2017-12-15T06:52:27.073Z,39.73
2017-12-15T06:54:53.337Z,41.43
2017-12-15T06:57:19.552Z,45.20
2017-12-15T06:59:45.763Z,34.43
2017-12-15T07:02:12.008Z,42.33
2017-12-15T07:04:38.235Z,36.53
2017-12-15T07:07:05.249Z,47.53
2017-12-15T07:09:32.234Z,44.60
2017-12-15T07:11:58.470Z,41.67
2017-12-15T07:14:24.716Z,44.87
2017-12-15T07:16:50.942Z,39.33
2017-12-15T07:19:17.153Z,46.30
2017-12-15T07:21:43.380Z,45.90
2017-12-15T07:24:09.586Z,39.13
2017-12-15T07:26:36.542Z,47.43
2017-12-15T07:29:03.521Z,39.80
2017-12-15T07:31:29.729Z,48.47
2017-12-15T07:33:55.943Z,42.57
2017-12-15T07:36:22.178Z,35.17
2017-12-15T07:38:48.815Z,50.23
2017-12-15T07:41:15.791Z,45.97
2017-12-15T07:43:42.788Z,41.70
2017-12-15T07:46:09.020Z,43.17
2017-12-15T07:48:36.026Z,56.40
2017-12-15T07:51:03.037Z,48.40
2017-12-15T07:53:29.262Z,40.70
2017-12-15T07:55:55.472Z,49.70
2017-12-15T07:58:21.717Z,45.50
2017-12-15T08:00:47.926Z,50.00
2017-12-15T08:03:14.220Z,41.50
2017-12-15T08:05:40.469Z,40.97
2017-12-15T08:08:06.713Z,41.10
2017-12-15T08:10:33.668Z,46.03
2017-12-15T08:13:00.661Z,40.90
2017-12-15T08:15:26.878Z,46.50
2017-12-15T08:17:53.080Z,45.50
2017-12-15T08:20:19.341Z,65.13
2017-12-15T08:22:46.288Z,45.37
2017-12-15T08:25:13.241Z,42.20
2017-12-15T08:27:39.485Z,40.43
2017-12-15T08:30:05.704Z,41.50
2017-12-15T08:32:32.640Z,43.53
2017-12-15T08:34:58.869Z,42.70
2017-12-15T08:37:25.104Z,48.90
2017-12-15T08:39:51.706Z,39.33
2017-12-15T08:42:18.690Z,43.57
2017-12-15T08:44:44.901Z,48.00
2017-12-15T08:47:11.137Z,52.93
2017-12-15T08:49:38.094Z,53.27
2017-12-15T08:52:04.318Z,52.43
2017-12-15T08:54:30.546Z,54.40
2017-12-15T08:56:56.789Z,58.57
2017-12-15T08:59:22.984Z,49.07
2017-12-15T09:01:49.248Z,49.60
2017-12-15T09:04:21.674Z,47.33
2017-12-15T09:06:47.938Z,46.83
2017-12-15T09:09:14.141Z,46.37
2017-12-15T09:11:40.393Z,40.60
2017-12-15T09:14:07.360Z,44.50
2017-12-15T09:16:33.576Z,48.97
2017-12-15T09:18:59.831Z,50.33
2017-12-15T09:21:26.065Z,47.50
2017-12-15T09:23:52.265Z,44.90
2017-12-15T09:26:19.245Z,40.97
2017-12-15T09:28:45.447Z,52.23
2017-12-15T09:31:12.425Z,46.60
2017-12-15T09:33:38.653Z,55.70
2017-12-15T09:36:05.620Z,52.50
2017-12-15T09:38:31.836Z,41.90
2017-12-15T09:40:58.396Z,51.50
2017-12-15T09:43:24.644Z,44.27
2017-12-15T09:45:50.870Z,49.37
2017-12-15T09:48:17.117Z,54.73
2017-12-15T09:50:43.330Z,48.97
2017-12-15T09:53:09.553Z,53.73
2017-12-15T09:55:36.521Z,47.60
2017-12-15T09:58:02.736Z,57.70
2017-12-15T10:00:29.009Z,51.43
2017-12-15T10:02:55.229Z,52.37
2017-12-15T10:05:21.441Z,51.03
2017-12-15T10:07:48.400Z,52.43
2017-12-15T10:10:14.660Z,46.67
2017-12-15T10:12:40.889Z,54.57
2017-12-15T10:15:07.101Z,52.57
2017-12-15T10:17:33.372Z,52.27
2017-12-15T10:19:59.620Z,57.63
2017-12-15T10:22:25.878Z,56.07
2017-12-15T10:24:52.098Z,49.40
2017-12-15T10:27:18.294Z,69.50
2017-12-15T10:29:44.492Z,59.43
2017-12-15T10:32:11.491Z,48.30
2017-12-15T10:34:37.696Z,46.97
2017-12-15T10:37:03.949Z,52.07
2017-12-15T10:39:30.208Z,54.20
2017-12-15T10:41:56.680Z,52.47
2017-12-15T10:44:22.888Z,53.90
2017-12-15T10:46:49.136Z,53.57
2017-12-15T10:49:16.128Z,48.17
2017-12-15T10:51:43.056Z,61.40
2017-12-15T10:54:09.291Z,51.13
2017-12-15T10:56:35.536Z,58.90
2017-12-15T10:59:02.482Z,47.80
2017-12-15T11:01:28.744Z,55.40
2017-12-15T11:03:55.724Z,48.93
2017-12-15T11:06:21.965Z,45.53
2017-12-15T11:08:48.192Z,54.40
2017-12-15T11:11:14.413Z,46.00
2017-12-15T11:13:40.640Z,46.10
2017-12-15T11:16:07.605Z,46.87
2017-12-15T11:18:33.809Z,43.07
2017-12-15T11:21:00.061Z,44.70
2017-12-15T11:23:26.292Z,43.07
2017-12-15T11:25:52.493Z,52.80
2017-12-15T11:28:19.514Z,46.67
2017-12-15T11:30:46.505Z,45.03
2017-12-15T11:33:12.742Z,43.07
2017-12-15T11:35:38.953Z,40.03
2017-12-15T11:38:05.145Z,45.90
2017-12-15T11:40:31.328Z,43.10
2017-12-15T11:42:57.640Z,36.13
2017-12-15T11:45:23.911Z,47.00
2017-12-15T11:47:50.892Z,40.90
2017-12-15T11:50:17.130Z,42.07
2017-12-15T11:52:43.369Z,42.80
2017-12-15T11:55:09.574Z,45.67
2017-12-15T11:57:35.789Z,44.43
2017-12-15T12:00:02.737Z,43.33
2017-12-15T12:02:29.705Z,41.10
2017-12-15T12:04:56.681Z,41.07
2017-12-15T12:07:22.909Z,43.97
2017-12-15T12:09:49.169Z,41.77
2017-12-15T12:12:15.369Z,52.07
2017-12-15T12:14:41.592Z,42.43
2017-12-15T12:17:08.543Z,41.40
2017-12-15T12:19:35.579Z,43.43
2017-12-15T12:22:02.559Z,49.90
2017-12-15T12:24:28.780Z,41.27
2017-12-15T12:26:55.046Z,40.17
2017-12-15T12:29:21.296Z,40.33
2017-12-15T12:31:47.524Z,48.63
2017-12-15T12:34:13.766Z,44.50
2017-12-15T12:36:40.248Z,41.07
2017-12-15T12:39:07.198Z,49.90
2017-12-15T12:41:33.425Z,40.97
2017-12-15T12:43:59.766Z,38.63
2017-12-15T12:46:26.738Z,37.87
2017-12-15T12:48:53.027Z,40.20
2017-12-15T12:51:19.259Z,44.20
2017-12-15T12:53:45.473Z,45.10
2017-12-15T12:56:11.681Z,42.67
2017-12-15T12:58:39.101Z,48.80
2017-12-15T13:01:05.606Z,53.37
2017-12-15T13:03:31.805Z,42.90
2017-12-15T13:05:58.820Z,55.10
2017-12-15T13:08:25.060Z,75.67
2017-12-15T13:10:51.253Z,45.67
2017-12-15T13:13:17.545Z,53.57
2017-12-15T13:15:44.520Z,56.87
2017-12-15T13:18:11.472Z,58.23
2017-12-15T13:20:40.311Z,51.63
2017-12-15T13:23:06.514Z,47.70
2017-12-15T13:25:32.717Z,57.50
2017-12-15T13:27:58.938Z,80.37
2017-12-15T13:30:25.133Z,60.43
2017-12-15T13:32:51.341Z,58.90
2017-12-15T13:35:17.586Z,57.60
2017-12-15T13:37:43.824Z,61.17
2017-12-15T13:40:10.078Z,71.40
2017-12-15T13:42:36.318Z,64.13
2017-12-15T13:45:02.661Z,65.87
2017-12-15T13:47:28.857Z,69.50
2017-12-15T13:49:55.081Z,63.83
2017-12-15T13:52:21.325Z,66.00
2017-12-15T13:54:47.529Z,57.20
2017-12-15T13:57:14.486Z,71.17
2017-12-15T13:59:41.415Z,65.10
2017-12-15T14:02:07.645Z,83.90
2017-12-15T14:04:33.877Z,60.03
2017-12-15T14:07:00.089Z,63.40
2017-12-15T14:09:26.309Z,59.03
2017-12-15T14:11:52.564Z,61.43
2017-12-15T14:14:18.773Z,68.03
2017-12-15T14:16:44.996Z,67.57
2017-12-15T14:19:11.344Z,61.67
2017-12-15T14:21:37.561Z,153.80
2017-12-15T14:24:03.870Z,69.10
2017-12-15T14:26:30.090Z,67.83
2017-12-15T14:28:56.313Z,60.67
2017-12-15T14:31:26.287Z,65.27
2017-12-15T14:33:56.444Z,88.80
2017-12-15T14:36:22.956Z,72.10
2017-12-15T14:38:49.208Z,75.27
2017-12-15T14:41:15.638Z,71.07
2017-12-15T14:43:41.955Z,72.03
2017-12-15T14:46:08.673Z,71.70
2017-12-15T14:48:43.831Z,70.73
2017-12-15T14:51:01.935Z,65.60
2017-12-15T14:53:28.216Z,76.20
2017-12-15T14:55:55.378Z,67.90
2017-12-15T14:58:21.700Z,69.83
2017-12-15T15:00:48.677Z,71.73
2017-12-15T15:03:14.944Z,73.80
2017-12-15T15:05:41.172Z,66.53
2017-12-15T15:08:08.213Z,57.93
2017-12-15T15:10:34.473Z,65.77
2017-12-15T15:13:00.704Z,56.00
2017-12-15T15:15:26.932Z,61.07
2017-12-15T15:17:53.165Z,64.60
2017-12-15T15:20:19.392Z,58.50
2017-12-15T15:22:45.600Z,67.37
2017-12-15T15:25:12.581Z,59.67
2017-12-15T15:27:38.890Z,60.70
2017-12-15T15:30:05.181Z,57.80
2017-12-15T15:32:32.276Z,69.47
2017-12-15T15:34:58.630Z,66.67
2017-12-15T15:37:25.738Z,73.27
2017-12-15T15:39:52.198Z,66.60
2017-12-15T15:42:18.575Z,71.77
2017-12-15T15:44:46.281Z,69.87
2017-12-15T15:47:13.055Z,57.83
2017-12-15T15:49:39.358Z,59.50
2017-12-15T15:52:06.404Z,60.33
2017-12-15T15:54:33.473Z,55.90
2017-12-15T15:56:59.814Z,62.03
2017-12-15T15:59:26.969Z,64.07
2017-12-15T16:01:53.278Z,59.90
2017-12-15T16:04:19.591Z,57.87
2017-12-15T16:06:46.362Z,63.73
2017-12-15T16:09:12.771Z,63.40
2017-12-15T16:11:39.166Z,69.87
2017-12-15T16:14:06.297Z,72.70
2017-12-15T16:16:32.723Z,66.33
2017-12-15T16:18:59.106Z,67.70
2017-12-15T16:21:25.582Z,69.33
2017-12-15T16:23:52.062Z,59.97
2017-12-15T16:26:19.440Z,76.17
2017-12-15T16:28:45.951Z,71.57
2017-12-15T16:31:12.481Z,71.03
2017-12-15T16:33:39.050Z,67.80
2017-12-15T16:36:05.365Z,66.03
2017-12-15T16:38:32.288Z,77.37
2017-12-15T16:41:00.204Z,69.43
2017-12-15T16:43:27.505Z,64.73
2017-12-15T16:45:53.869Z,61.07
2017-12-15T16:48:21.462Z,59.77
2017-12-15T16:50:48.056Z,63.37
2017-12-15T16:53:15.242Z,59.30
2017-12-15T16:55:42.318Z,61.87
2017-12-15T16:58:08.727Z,59.07
2017-12-15T17:00:35.190Z,68.40
2017-12-15T17:03:02.670Z,57.37
2017-12-15T17:05:28.997Z,64.73
2017-12-15T17:07:56.052Z,55.80
2017-12-15T17:10:23.043Z,55.40
2017-12-15T17:12:50.025Z,77.23
2017-12-15T17:15:17.140Z,57.37
2017-12-15T17:17:43.431Z,69.63
2017-12-15T17:20:09.740Z,51.57
2017-12-15T17:22:35.991Z,62.93
2017-12-15T17:25:02.320Z,58.93
2017-12-15T17:27:28.688Z,60.43
2017-12-15T17:29:54.982Z,68.70
2017-12-15T17:32:21.354Z,63.63
2017-12-15T17:34:48.360Z,60.27
2017-12-15T17:37:14.670Z,51.90
2017-12-15T17:39:40.958Z,61.57
2017-12-15T17:42:07.220Z,49.80
2017-12-15T17:44:33.617Z,55.63
2017-12-15T17:47:00.029Z,59.00
2017-12-15T17:49:27.681Z,49.37
2017-12-15T17:51:54.495Z,47.97
2017-12-15T17:54:20.939Z,43.83
2017-12-15T17:56:47.491Z,50.80
2017-12-15T17:59:14.009Z,51.30
2017-12-15T18:01:40.488Z,45.67
2017-12-15T18:04:06.948Z,50.60
2017-12-15T18:06:33.233Z,46.57
2017-12-15T18:08:59.473Z,45.50
2017-12-15T18:11:26.640Z,39.90
2017-12-15T18:13:52.945Z,45.57
2017-12-15T18:16:19.292Z,46.33
2017-12-15T18:18:45.622Z,44.57
2017-12-15T18:21:12.674Z,46.30
2017-12-15T18:23:39.786Z,46.73
2017-12-15T18:26:06.870Z,41.27
2017-12-15T18:28:34.000Z,40.43
2017-12-15T18:31:00.491Z,42.03
2017-12-15T18:33:26.861Z,42.17
2017-12-15T18:35:53.293Z,39.73
2017-12-15T18:38:20.399Z,38.00
2017-12-15T18:40:46.741Z,39.97
2017-12-15T18:43:13.000Z,36.00
2017-12-15T18:45:39.255Z,40.20
2017-12-15T18:48:05.569Z,34.20
2017-12-15T18:50:32.137Z,43.27
2017-12-15T18:52:58.366Z,36.33
2017-12-15T18:55:24.592Z,42.87
2017-12-15T18:57:50.880Z,39.57
2017-12-15T19:00:17.104Z,41.80
2017-12-15T19:02:44.082Z,39.97
2017-12-15T19:05:10.329Z,43.67
2017-12-15T19:07:36.564Z,41.30
2017-12-15T19:10:02.958Z,32.47
2017-12-15T19:12:29.338Z,39.70
2017-12-15T19:14:56.454Z,42.30
2017-12-15T19:17:22.812Z,35.77
2017-12-15T19:19:49.337Z,32.50
2017-12-15T19:22:15.618Z,37.43
2017-12-15T19:24:42.589Z,36.33
2017-12-15T19:27:09.724Z,31.17
2017-12-15T19:29:35.972Z,33.43
2017-12-15T19:32:02.222Z,34.70
2017-12-15T19:34:28.728Z,39.13
2017-12-15T19:36:54.966Z,40.73
2017-12-15T19:39:21.197Z,34.73
2017-12-15T19:41:47.700Z,41.93
2017-12-15T19:44:14.149Z,37.00
2017-12-15T19:46:40.488Z,39.40
2017-12-15T19:49:06.831Z,37.93
2017-12-15T19:51:33.426Z,34.73
2017-12-15T19:53:59.673Z,39.73
2017-12-15T19:56:25.988Z,40.07
2017-12-15T19:58:53.246Z,40.90
2017-12-15T20:01:19.672Z,35.30
2017-12-15T20:03:46.985Z,38.70
2017-12-15T20:06:13.289Z,27.07
2017-12-15T20:08:40.410Z,44.20
2017-12-15T20:11:06.817Z,37.50
2017-12-15T20:13:33.304Z,35.13
2017-12-15T20:15:59.681Z,33.10
2017-12-15T20:18:26.076Z,32.30
2017-12-15T20:20:52.488Z,39.73
2017-12-15T20:23:18.874Z,32.60
2017-12-15T20:25:45.163Z,38.47
2017-12-15T20:28:11.553Z,27.13
2017-12-15T20:30:38.585Z,29.77
2017-12-15T20:33:04.946Z,38.83
2017-12-15T20:35:32.072Z,30.40
2017-12-15T20:37:59.239Z,31.17
2017-12-15T20:40:26.340Z,27.87
2017-12-15T20:42:52.629Z,36.37
2017-12-15T20:45:18.901Z,31.07
2017-12-15T20:47:45.177Z,28.10
2017-12-15T20:50:11.502Z,32.93
2017-12-15T20:52:38.113Z,29.03
2017-12-15T20:55:05.162Z,37.30
2017-12-15T20:57:32.244Z,32.70
2017-12-15T20:59:58.601Z,30.63
2017-12-15T21:02:24.908Z,29.67
2017-12-15T21:04:51.284Z,29.13
2017-12-15T21:07:17.549Z,33.67
2017-12-15T21:09:44.287Z,33.67
2017-12-15T21:12:10.583Z,32.63
2017-12-15T21:14:36.839Z,30.23
2017-12-15T21:17:03.172Z,26.83
2017-12-15T21:19:29.499Z,32.43
2017-12-15T21:21:55.864Z,34.00
2017-12-15T21:24:22.201Z,34.00
2017-12-15T21:26:48.622Z,33.73
2017-12-15T21:29:15.906Z,36.17
2017-12-15T21:31:43.042Z,42.63
2017-12-15T21:34:10.154Z,33.80
2017-12-15T21:36:36.514Z,38.20
2017-12-15T21:39:02.800Z,39.97
2017-12-15T21:41:29.840Z,39.37
2017-12-15T21:43:56.104Z,36.70
2017-12-15T21:46:23.147Z,40.70
2017-12-15T21:48:50.199Z,38.20
2017-12-15T21:51:17.202Z,39.57
2017-12-15T21:53:44.522Z,37.17
2017-12-15T21:56:10.795Z,32.87
2017-12-15T21:58:37.048Z,39.33
2017-12-15T22:01:03.436Z,55.00
2017-12-15T22:03:29.714Z,70.53
2017-12-15T22:05:56.012Z,36.67
2017-12-15T22:08:22.996Z,34.33
2017-12-15T22:10:49.359Z,32.17
2017-12-15T22:13:15.602Z,38.43
2017-12-15T22:15:41.878Z,38.93
2017-12-15T22:18:08.133Z,31.90
2017-12-15T22:20:34.439Z,36.80
2017-12-15T22:23:00.690Z,36.97
2017-12-15T22:25:26.991Z,35.97
2017-12-15T22:27:54.014Z,34.53
2017-12-15T22:30:20.366Z,41.90
2017-12-15T22:32:47.478Z,39.93
2017-12-15T22:35:14.526Z,45.60
2017-12-15T22:37:41.886Z,41.87
2017-12-15T22:40:08.849Z,35.40
2017-12-15T22:42:35.165Z,34.27
2017-12-15T22:45:01.496Z,34.03
2017-12-15T22:47:28.598Z,34.77
2017-12-15T22:49:55.011Z,33.43
2017-12-15T22:52:21.319Z,31.40
2017-12-15T22:54:48.091Z,37.37
2017-12-15T22:57:14.421Z,41.60
2017-12-15T22:59:41.408Z,35.43
2017-12-15T23:02:08.595Z,43.60
2017-12-15T23:04:34.869Z,36.70
2017-12-15T23:07:01.171Z,37.23
2017-12-15T23:09:28.174Z,29.13
2017-12-15T23:11:54.453Z,30.90
2017-12-15T23:14:20.680Z,32.80
2017-12-15T23:16:47.673Z,33.50
2017-12-15T23:19:14.713Z,33.13
2017-12-15T23:21:41.004Z,32.67
2017-12-15T23:24:07.250Z,34.50
2017-12-15T23:26:33.549Z,39.40
2017-12-15T23:29:00.660Z,33.07
2017-12-15T23:31:27.073Z,36.00
2017-12-15T23:33:53.442Z,30.50
2017-12-15T23:36:20.504Z,54.00
2017-12-15T23:38:47.548Z,43.30
2017-12-15T23:41:13.942Z,42.80
2017-12-15T23:43:40.227Z,38.43
2017-12-15T23:46:06.466Z,35.80
2017-12-15T23:48:32.684Z,33.73
2017-12-15T23:50:58.890Z,36.23
2017-12-15T23:53:25.947Z,39.77
2017-12-15T23:56:04.884Z,42.10
2017-12-15T23:58:31.384Z,38.57
